createdAt,value
2022-08-04T00:01:34.696Z,98.10
2022-08-04T00:04:50.300Z,97.90
2022-08-04T00:07:44.463Z,98.20
2022-08-04T00:10:18.938Z,97.90
2022-08-04T00:12:52.692Z,97.80
2022-08-04T00:15:22.863Z,97.70
2022-08-04T00:18:16.972Z,97.70
2022-08-04T00:20:47.445Z,98.20
2022-08-04T00:23:22.249Z,97.80
2022-08-04T00:25:52.037Z,97.50
2022-08-04T00:28:22.818Z,97.40
2022-08-04T00:30:52.744Z,97.30
2022-08-04T00:33:23.659Z,97.20
2022-08-04T00:35:53.335Z,97.00
2022-08-04T00:38:22.462Z,97.00
2022-08-04T00:41:01.887Z,96.90
2022-08-04T00:43:35.062Z,96.80
2022-08-04T00:46:24.543Z,96.70
2022-08-04T00:49:14.898Z,96.70
2022-08-04T00:52:31.392Z,96.70
2022-08-04T00:55:13.131Z,96.70
2022-08-04T00:58:12.436Z,96.70
2022-08-04T01:00:53.666Z,97.00
2022-08-04T01:03:44.356Z,96.30
2022-08-04T01:06:37.239Z,96.20
2022-08-04T01:09:21.880Z,96.20
2022-08-04T01:12:25.770Z,96.00
2022-08-04T01:15:17.326Z,95.70
2022-08-04T01:18:01.361Z,95.50
2022-08-04T01:20:36.622Z,95.30
2022-08-04T01:23:36.813Z,95.10
2022-08-04T01:26:41.931Z,94.80
2022-08-04T01:29:16.078Z,94.80
2022-08-04T01:31:54.402Z,94.60
2022-08-04T01:34:25.186Z,94.50
2022-08-04T01:37:34.472Z,94.30
2022-08-04T01:40:09.275Z,94.20
2022-08-04T01:42:40.768Z,94.20
2022-08-04T01:45:12.721Z,94.30
2022-08-04T01:47:52.233Z,94.20
2022-08-04T01:50:23.595Z,94.10
2022-08-04T01:52:59.297Z,94.00
2022-08-04T01:55:54.252Z,94.00
2022-08-04T01:58:22.462Z,94.00
2022-08-04T02:01:08.043Z,94.00
2022-08-04T02:04:18.089Z,93.70
2022-08-04T02:06:40.301Z,93.70
2022-08-04T02:09:27.170Z,93.60
2022-08-04T02:12:32.078Z,93.50
2022-08-04T02:15:29.558Z,93.20
2022-08-04T02:17:58.988Z,93.00
2022-08-04T02:20:45.131Z,93.00
2022-08-04T02:23:30.620Z,93.00
2022-08-04T02:26:08.817Z,92.80
2022-08-04T02:29:05.277Z,92.60
2022-08-04T02:31:45.739Z,92.30
2022-08-04T02:34:32.970Z,92.30
2022-08-04T02:37:05.470Z,92.10
2022-08-04T02:39:47.934Z,92.00
2022-08-04T02:42:20.370Z,92.20
2022-08-04T02:44:52.982Z,91.60
2022-08-04T02:48:28.920Z,91.40
2022-08-04T02:50:28.817Z,91.30
2022-08-04T02:53:00.108Z,91.30
2022-08-04T02:55:31.759Z,90.70
2022-08-04T02:58:03.686Z,91.00
2022-08-04T03:00:33.749Z,90.90
2022-08-04T03:03:27.453Z,90.70
2022-08-04T03:06:16.057Z,90.30
2022-08-04T03:09:35.263Z,90.20
2022-08-04T03:12:41.370Z,89.90
2022-08-04T03:15:55.723Z,90.00
2022-08-04T03:18:37.066Z,89.50
2022-08-04T03:21:24.926Z,89.10
2022-08-04T03:24:14.935Z,88.10
2022-08-04T03:27:18.958Z,89.50
2022-08-04T03:30:00.752Z,88.30
2022-08-04T03:32:51.333Z,88.60
2022-08-04T03:36:02.093Z,87.90
2022-08-04T03:39:01.736Z,87.30
2022-08-04T03:42:03.513Z,88.00
2022-08-04T03:45:01.479Z,87.00
2022-08-04T03:47:45.747Z,86.50
2022-08-04T03:50:48.351Z,86.70
2022-08-04T03:53:30.604Z,86.20
2022-08-04T03:56:05.689Z,86.40
2022-08-04T03:59:19.103Z,86.80
2022-08-04T04:02:02.556Z,85.60
2022-08-04T04:05:01.814Z,85.10
2022-08-04T04:08:18.644Z,85.40
2022-08-04T04:10:54.485Z,83.10
2022-08-04T04:13:52.347Z,85.20
2022-08-04T04:16:27.396Z,85.70
2022-08-04T04:19:08.716Z,85.10
2022-08-04T04:21:56.050Z,85.00
2022-08-04T04:24:43.235Z,85.20
2022-08-04T04:27:36.370Z,84.70
2022-08-04T04:30:10.324Z,84.70
2022-08-04T04:33:14.872Z,85.10
2022-08-04T04:35:59.640Z,82.90
2022-08-04T04:38:40.899Z,80.70
2022-08-04T04:41:23.610Z,84.40
2022-08-04T04:44:17.166Z,84.60
2022-08-04T04:47:43.049Z,84.00
2022-08-04T04:50:47.281Z,81.90
2022-08-04T04:53:43.376Z,82.20
2022-08-04T04:56:38.633Z,83.10
2022-08-04T04:59:12.523Z,82.60
2022-08-04T05:02:03.943Z,82.60
2022-08-04T05:05:05.090Z,83.00
2022-08-04T05:08:44.402Z,82.10
2022-08-04T05:11:01.700Z,81.70
2022-08-04T05:14:34.479Z,83.10
2022-08-04T05:16:52.795Z,80.90
2022-08-04T05:19:36.053Z,81.90
2022-08-04T05:22:29.961Z,82.50
2022-08-04T05:25:20.101Z,81.70
2022-08-04T05:28:13.905Z,80.20
2022-08-04T05:30:51.851Z,82.00
2022-08-04T05:33:38.482Z,82.10
2022-08-04T05:36:18.619Z,81.50
2022-08-04T05:38:55.433Z,82.10
2022-08-04T05:41:32.266Z,82.70
2022-08-04T05:44:15.321Z,82.50
2022-08-04T05:46:54.071Z,82.10
2022-08-04T05:49:31.116Z,82.00
2022-08-04T05:52:05.471Z,82.00
2022-08-04T05:54:37.035Z,82.20
2022-08-04T05:57:08.650Z,82.50
2022-08-04T05:59:43.451Z,82.30
2022-08-04T06:02:13.199Z,82.30
2022-08-04T06:04:45.088Z,82.40
2022-08-04T06:07:15.583Z,82.60
2022-08-04T06:09:45.135Z,82.40
2022-08-04T06:12:34.850Z,82.30
2022-08-04T06:15:05.942Z,80.60
2022-08-04T06:18:35.217Z,81.90
2022-08-04T06:20:35.276Z,81.80
2022-08-04T06:23:16.483Z,82.00
2022-08-04T06:25:52.090Z,81.90
2022-08-04T06:28:22.224Z,81.90
2022-08-04T06:30:52.743Z,81.80
2022-08-04T06:33:28.828Z,81.30
2022-08-04T06:35:59.861Z,81.60
2022-08-04T06:38:31.611Z,81.50
2022-08-04T06:41:04.941Z,81.50
2022-08-04T06:43:42.967Z,81.20
2022-08-04T06:46:14.185Z,81.20
2022-08-04T06:48:44.829Z,81.10
2022-08-04T06:51:25.591Z,80.70
2022-08-04T06:54:02.713Z,80.40
2022-08-04T06:56:35.362Z,80.80
2022-08-04T06:59:06.299Z,80.10
2022-08-04T07:01:39.211Z,80.00
2022-08-04T07:04:08.991Z,79.90
2022-08-04T07:06:39.049Z,80.00
2022-08-04T07:09:09.235Z,80.20
2022-08-04T07:11:44.369Z,79.80
2022-08-04T07:14:15.679Z,80.20
2022-08-04T07:16:45.861Z,80.30
2022-08-04T07:19:18.919Z,80.00
2022-08-04T07:22:24.513Z,80.30
2022-08-04T07:24:41.066Z,75.80
2022-08-04T07:27:11.674Z,79.00
2022-08-04T07:29:41.904Z,79.10
2022-08-04T07:32:12.988Z,79.20
2022-08-04T07:34:43.866Z,79.60
2022-08-04T07:37:19.760Z,79.50
2022-08-04T07:39:49.215Z,79.50
2022-08-04T07:42:21.679Z,79.20
2022-08-04T07:44:51.697Z,79.60
2022-08-04T07:47:25.263Z,79.30
2022-08-04T07:49:57.669Z,79.30
2022-08-04T07:52:29.439Z,79.00
2022-08-04T07:54:59.588Z,79.20
2022-08-04T07:57:41.084Z,79.50
2022-08-04T08:00:15.389Z,78.50
2022-08-04T08:02:44.590Z,79.70
2022-08-04T08:05:18.043Z,76.20
2022-08-04T08:07:50.846Z,78.70
2022-08-04T08:10:25.348Z,75.40
2022-08-04T08:12:55.550Z,77.50
2022-08-04T08:15:25.630Z,78.80
2022-08-04T08:17:58.586Z,78.60
2022-08-04T08:20:31.649Z,77.90
2022-08-04T08:23:03.166Z,77.90
2022-08-04T08:25:35.852Z,78.70
2022-08-04T08:28:06.647Z,78.80
2022-08-04T08:30:36.480Z,77.80
2022-08-04T08:33:11.131Z,78.00
2022-08-04T08:35:53.915Z,78.40
2022-08-04T08:39:02.306Z,78.20
2022-08-04T08:41:46.742Z,77.30
2022-08-04T08:44:39.348Z,79.30
2022-08-04T08:47:59.340Z,78.40
2022-08-04T08:51:04.881Z,77.30
2022-08-04T08:54:10.847Z,78.30
2022-08-04T08:57:04.307Z,78.20
2022-08-04T08:59:59.104Z,78.20
2022-08-04T09:02:42.570Z,77.70
2022-08-04T09:05:44.185Z,78.40
2022-08-04T09:08:36.682Z,77.30
2022-08-04T09:11:18.335Z,78.50
2022-08-04T09:14:07.304Z,78.30
2022-08-04T09:16:48.777Z,78.40
2022-08-04T09:19:38.183Z,78.90
2022-08-04T09:22:15.334Z,79.00
2022-08-04T09:25:03.939Z,78.60
2022-08-04T09:28:09.874Z,78.70
2022-08-04T09:30:54.129Z,77.30
2022-08-04T09:33:44.335Z,78.40
2022-08-04T09:36:37.446Z,77.30
2022-08-04T09:39:27.640Z,79.30
2022-08-04T09:42:00.698Z,79.10
2022-08-04T09:44:50.228Z,79.60
2022-08-04T09:47:51.946Z,79.60
2022-08-04T09:50:32.281Z,78.80
2022-08-04T09:53:29.685Z,79.00
2022-08-04T09:56:04.874Z,79.10
2022-08-04T09:58:46.498Z,79.60
2022-08-04T10:01:25.903Z,79.30
2022-08-04T10:04:02.692Z,79.60
2022-08-04T10:06:56.009Z,79.40
2022-08-04T10:09:44.523Z,79.10
2022-08-04T10:12:25.729Z,78.40
2022-08-04T10:15:22.135Z,78.60
2022-08-04T10:17:56.448Z,78.90
2022-08-04T10:20:46.033Z,79.20
2022-08-04T10:23:56.020Z,78.70
2022-08-04T10:26:47.013Z,79.50
2022-08-04T10:29:28.570Z,78.90
2022-08-04T10:32:42.756Z,79.50
2022-08-04T10:35:13.872Z,78.40
2022-08-04T10:37:59.207Z,79.30
2022-08-04T10:41:10.795Z,79.50
2022-08-04T10:44:12.445Z,78.90
2022-08-04T10:46:51.440Z,78.80
2022-08-04T10:49:57.893Z,79.40
2022-08-04T10:52:56.299Z,79.20
2022-08-04T10:56:06.136Z,79.30
2022-08-04T10:58:46.973Z,79.40
2022-08-04T11:02:01.624Z,79.40
2022-08-04T11:04:43.840Z,79.50
2022-08-04T11:07:14.434Z,79.70
2022-08-04T11:09:46.209Z,79.90
2022-08-04T11:12:28.577Z,80.00
2022-08-04T11:15:03.553Z,79.70
2022-08-04T11:17:39.992Z,80.10
2022-08-04T11:20:38.232Z,80.10
2022-08-04T11:23:17.389Z,80.10
2022-08-04T11:26:06.681Z,80.30
2022-08-04T11:29:00.758Z,80.30
2022-08-04T11:31:48.420Z,80.50
2022-08-04T11:34:28.733Z,80.50
2022-08-04T11:37:21.251Z,80.70
2022-08-04T11:40:19.769Z,80.90
2022-08-04T11:43:03.859Z,81.10
2022-08-04T11:45:56.228Z,81.20
2022-08-04T11:49:13.293Z,81.40
2022-08-04T11:51:44.831Z,82.00
2022-08-04T11:54:15.414Z,81.70
2022-08-04T11:56:44.925Z,81.80
2022-08-04T11:59:14.340Z,82.00
2022-08-04T12:02:23.158Z,82.00
2022-08-04T12:05:03.892Z,82.10
2022-08-04T12:08:01.972Z,82.30
2022-08-04T12:10:43.943Z,82.40
2022-08-04T12:13:45.886Z,82.50
2022-08-04T12:16:42.666Z,82.70
2022-08-04T12:19:40.032Z,82.90
2022-08-04T12:22:28.359Z,82.80
2022-08-04T12:25:15.533Z,83.00
2022-08-04T12:27:56.748Z,83.80
2022-08-04T12:31:02.606Z,83.10
2022-08-04T12:34:04.879Z,83.20
2022-08-04T12:36:44.397Z,83.20
2022-08-04T12:39:21.855Z,83.20
2022-08-04T12:41:57.230Z,83.50
2022-08-04T12:44:36.565Z,83.70
2022-08-04T12:47:28.167Z,83.70
2022-08-04T12:50:04.488Z,83.80
2022-08-04T12:53:00.928Z,84.00
2022-08-04T12:55:33.039Z,84.00
2022-08-04T12:58:05.586Z,84.20
2022-08-04T13:00:41.588Z,84.40
2022-08-04T13:03:19.100Z,84.40
2022-08-04T13:05:49.952Z,84.60
2022-08-04T13:08:22.934Z,84.60
2022-08-04T13:10:55.322Z,84.70
2022-08-04T13:13:28.977Z,84.80
2022-08-04T13:16:15.800Z,84.80
2022-08-04T13:18:50.578Z,85.20
2022-08-04T13:21:50.336Z,85.10
2022-08-04T13:24:21.057Z,85.10
2022-08-04T13:27:04.132Z,85.20
2022-08-04T13:29:58.120Z,85.20
2022-08-04T13:32:31.545Z,85.30
2022-08-04T13:35:05.752Z,85.20
2022-08-04T13:37:38.283Z,85.20
2022-08-04T13:40:10.910Z,85.30
2022-08-04T13:42:41.554Z,85.40
2022-08-04T13:45:11.447Z,85.50
2022-08-04T13:47:42.673Z,85.60
2022-08-04T13:50:14.831Z,85.60
2022-08-04T13:52:45.257Z,85.80
2022-08-04T13:55:26.440Z,85.80
2022-08-04T13:58:03.452Z,86.20
2022-08-04T14:00:53.363Z,86.10
2022-08-04T14:03:53.327Z,86.50
2022-08-04T14:06:45.070Z,86.60
2022-08-04T14:09:22.529Z,86.50
2022-08-04T14:12:38.723Z,86.70
2022-08-04T14:16:01.511Z,86.80
2022-08-04T14:18:24.770Z,86.90
2022-08-04T14:21:17.868Z,86.80
2022-08-04T14:23:56.198Z,87.10
2022-08-04T14:26:34.988Z,86.90
2022-08-04T14:29:28.643Z,86.90
2022-08-04T14:32:12.538Z,87.00
2022-08-04T14:34:46.373Z,87.10
2022-08-04T14:37:23.997Z,87.10
2022-08-04T14:40:08.783Z,87.10
2022-08-04T14:42:55.745Z,87.10
2022-08-04T14:45:55.615Z,87.30
2022-08-04T14:48:26.470Z,87.60
2022-08-04T14:50:56.017Z,87.40
2022-08-04T14:53:30.420Z,87.50
2022-08-04T14:56:02.210Z,87.80
2022-08-04T14:58:39.191Z,88.80
2022-08-04T15:01:12.734Z,88.80
2022-08-04T15:03:48.054Z,88.50
2022-08-04T15:06:26.706Z,88.30
2022-08-04T15:08:58.419Z,88.00
2022-08-04T15:11:28.842Z,88.00
2022-08-04T15:14:00.001Z,87.80
2022-08-04T15:16:32.002Z,87.80
2022-08-04T15:19:01.921Z,88.00
2022-08-04T15:21:32.319Z,87.80
2022-08-04T15:24:01.939Z,87.80
2022-08-04T15:26:36.866Z,87.90
2022-08-04T15:29:17.067Z,87.70
2022-08-04T15:32:06.999Z,87.90
2022-08-04T15:34:51.297Z,87.90
2022-08-04T15:37:28.404Z,88.10
2022-08-04T15:40:32.946Z,88.10
2022-08-04T15:43:43.415Z,88.30
2022-08-04T15:46:44.102Z,89.10
2022-08-04T15:49:20.808Z,88.80
2022-08-04T15:52:01.974Z,89.40
2022-08-04T15:54:33.137Z,89.40
2022-08-04T15:57:03.747Z,89.50
2022-08-04T16:00:02.431Z,89.60
2022-08-04T16:02:37.787Z,90.10
2022-08-04T16:05:19.015Z,90.10
2022-08-04T16:08:14.293Z,90.30
2022-08-04T16:10:46.873Z,90.70
2022-08-04T16:13:21.399Z,90.30
2022-08-04T16:15:53.033Z,90.40
2022-08-04T16:18:28.187Z,90.40
2022-08-04T16:20:59.060Z,90.40
2022-08-04T16:24:05.616Z,90.50
2022-08-04T16:26:54.640Z,90.80
2022-08-04T16:29:25.425Z,90.70
2022-08-04T16:32:12.938Z,90.60
2022-08-04T16:35:06.708Z,90.80
2022-08-04T16:37:39.288Z,90.70
2022-08-04T16:40:37.216Z,90.50
2022-08-04T16:43:23.736Z,90.60
2022-08-04T16:46:09.316Z,90.50
2022-08-04T16:49:07.804Z,90.40
2022-08-04T16:51:37.035Z,90.70
2022-08-04T16:54:07.660Z,90.70
2022-08-04T16:56:36.814Z,90.60
2022-08-04T16:59:13.501Z,90.70
2022-08-04T17:01:53.602Z,90.70
2022-08-04T17:04:33.990Z,90.90
2022-08-04T17:07:05.227Z,90.90
2022-08-04T17:09:34.925Z,90.80
2022-08-04T17:12:04.159Z,90.80
2022-08-04T17:14:33.960Z,90.80
2022-08-04T17:17:08.692Z,90.90
2022-08-04T17:19:38.887Z,90.90
2022-08-04T17:22:10.652Z,90.90
2022-08-04T17:24:41.778Z,90.90
2022-08-04T17:28:10.072Z,90.90
2022-08-04T17:30:02.866Z,90.90
2022-08-04T17:32:32.886Z,91.00
2022-08-04T17:35:04.562Z,91.10
2022-08-04T17:37:39.119Z,91.00
2022-08-04T17:40:18.329Z,91.00
2022-08-04T17:43:02.880Z,91.10
2022-08-04T17:46:30.203Z,91.10
2022-08-04T17:49:07.773Z,91.40
2022-08-04T17:52:04.270Z,91.30
2022-08-04T17:54:37.410Z,91.30
2022-08-04T17:57:24.047Z,91.30
2022-08-04T18:00:00.532Z,91.50
2022-08-04T18:02:35.298Z,91.40
2022-08-04T18:05:11.711Z,91.40
2022-08-04T18:08:46.042Z,91.50
2022-08-04T18:10:54.734Z,91.50
2022-08-04T18:13:29.677Z,91.50
2022-08-04T18:16:14.504Z,91.50
2022-08-04T18:19:31.502Z,91.60
2022-08-04T18:22:01.226Z,92.10
2022-08-04T18:24:56.161Z,91.70
2022-08-04T18:27:27.957Z,91.70
2022-08-04T18:30:33.827Z,91.80
2022-08-04T18:33:10.197Z,91.70
2022-08-04T18:36:32.521Z,91.70
2022-08-04T18:38:29.202Z,91.40
2022-08-04T18:40:59.138Z,91.30
2022-08-04T18:43:40.523Z,91.10
2022-08-04T18:46:14.609Z,91.00
2022-08-04T18:48:45.332Z,90.90
2022-08-04T18:51:24.358Z,91.00
2022-08-04T18:53:58.752Z,90.80
2022-08-04T18:56:32.834Z,90.70
2022-08-04T18:59:04.229Z,90.60
2022-08-04T19:04:34.020Z,90.50
2022-08-04T19:07:23.365Z,90.50
2022-08-04T19:09:57.692Z,90.50
2022-08-04T19:12:29.301Z,90.50
2022-08-04T19:15:08.954Z,90.40
2022-08-04T19:17:53.399Z,90.80
2022-08-04T19:20:27.766Z,90.40
2022-08-04T19:24:29.006Z,90.40
2022-08-04T19:26:03.950Z,90.30
2022-08-04T19:28:37.036Z,90.30
2022-08-04T19:31:08.722Z,90.30
2022-08-04T19:33:58.590Z,90.30
2022-08-04T19:36:31.471Z,90.30
2022-08-04T19:39:02.659Z,90.30
2022-08-04T19:42:05.946Z,90.30
2022-08-04T19:44:24.197Z,90.30
2022-08-04T19:46:53.432Z,90.30
2022-08-04T19:50:04.968Z,90.40
2022-08-04T19:52:11.610Z,90.30
2022-08-04T19:54:42.358Z,90.30
2022-08-04T19:57:15.474Z,90.30
2022-08-04T19:59:48.176Z,90.40
2022-08-04T20:02:17.799Z,90.40
2022-08-04T20:04:46.888Z,90.50
2022-08-04T20:07:16.917Z,90.50
2022-08-04T20:09:53.366Z,90.50
2022-08-04T20:12:22.995Z,90.50
2022-08-04T20:14:53.551Z,90.60
2022-08-04T20:17:55.670Z,90.60
2022-08-04T20:20:14.971Z,90.50
2022-08-04T20:22:52.245Z,90.70
2022-08-04T20:25:37.462Z,90.60
2022-08-04T20:28:08.204Z,90.70
2022-08-04T20:30:55.583Z,90.70
2022-08-04T20:33:24.997Z,90.80
2022-08-04T20:36:05.700Z,90.80
2022-08-04T20:38:36.255Z,91.20
2022-08-04T20:41:06.377Z,90.80
2022-08-04T20:43:35.832Z,90.90
2022-08-04T20:46:18.611Z,91.00
2022-08-04T20:48:57.048Z,91.00
2022-08-04T20:51:32.245Z,91.00
2022-08-04T20:54:04.549Z,90.90
2022-08-04T20:56:51.239Z,91.00
2022-08-04T20:59:21.394Z,91.10
2022-08-04T21:01:53.884Z,91.10
2022-08-04T21:04:32.722Z,91.10
2022-08-04T21:07:05.640Z,91.20
2022-08-04T21:09:38.363Z,91.20
2022-08-04T21:12:27.276Z,91.10
2022-08-04T21:15:13.988Z,91.30
2022-08-04T21:17:58.590Z,91.30
2022-08-04T21:20:34.541Z,91.30
2022-08-04T21:23:07.219Z,91.40
2022-08-04T21:25:42.980Z,91.40
2022-08-04T21:28:19.263Z,91.30
2022-08-04T21:30:54.182Z,91.30
2022-08-04T21:33:48.990Z,91.40
2022-08-04T21:36:19.743Z,91.30
2022-08-04T21:38:51.071Z,91.40
2022-08-04T21:41:24.869Z,91.30
2022-08-04T21:44:11.232Z,91.40
2022-08-04T21:46:44.649Z,91.60
2022-08-04T21:49:13.985Z,91.60
2022-08-04T21:51:57.725Z,91.50
2022-08-04T21:54:29.936Z,91.40
2022-08-04T21:56:59.108Z,91.50
2022-08-04T21:59:32.769Z,91.40
2022-08-04T22:02:03.256Z,91.50
2022-08-04T22:04:32.595Z,91.50
2022-08-04T22:07:03.133Z,91.60
2022-08-04T22:09:38.466Z,91.50
2022-08-04T22:12:12.318Z,91.50
2022-08-04T22:14:42.305Z,91.60
2022-08-04T22:17:19.309Z,91.60
2022-08-04T22:19:55.499Z,91.50
2022-08-04T22:22:29.611Z,91.60
2022-08-04T22:25:13.345Z,91.60
2022-08-04T22:28:02.913Z,91.60
2022-08-04T22:30:38.284Z,91.70
2022-08-04T22:33:18.012Z,91.60
2022-08-04T22:35:49.241Z,91.80
2022-08-04T22:38:26.793Z,92.10
2022-08-04T22:41:08.875Z,91.70
2022-08-04T22:43:39.532Z,91.70
2022-08-04T22:46:12.260Z,91.60
2022-08-04T22:51:18.391Z,91.60
2022-08-04T22:53:48.967Z,91.60
2022-08-04T22:56:37.414Z,91.80
2022-08-04T22:59:11.046Z,91.80
2022-08-04T23:01:59.619Z,91.80
2022-08-04T23:04:32.536Z,91.70
2022-08-04T23:07:09.069Z,91.90
2022-08-04T23:09:52.391Z,91.70
2022-08-04T23:12:25.469Z,91.80
2022-08-04T23:14:55.985Z,91.70
2022-08-04T23:17:27.767Z,92.20
2022-08-04T23:19:59.523Z,91.80
2022-08-04T23:22:41.835Z,91.80
2022-08-04T23:25:17.098Z,91.80
2022-08-04T23:27:51.273Z,91.80
2022-08-04T23:30:24.802Z,91.90
2022-08-04T23:33:00.074Z,91.80
2022-08-04T23:35:29.475Z,91.80
2022-08-04T23:38:00.053Z,91.70
2022-08-04T23:40:50.503Z,91.70
2022-08-04T23:43:20.630Z,91.70
2022-08-04T23:46:07.234Z,91.70
2022-08-04T23:48:39.359Z,91.60
2022-08-04T23:51:14.528Z,91.60
2022-08-04T23:54:03.185Z,91.60
2022-08-04T23:56:35.532Z,91.60
2022-08-04T23:59:17.910Z,91.60
